sensor_id;sensor_type;location;lat;lon;timestamp;P1;durP1;ratioP1;P2;durP2;ratioP2
23624;SDS011;11989;47.872;12.014;2023-03-01T00:01:53;39.80;;;25.77;;
23624;SDS011;11989;47.872;12.014;2023-03-01T00:04:19;38.33;;;26.95;;
23624;SDS011;11989;47.872;12.014;2023-03-01T00:06:45;39.88;;;25.00;;
23624;SDS011;11989;47.872;12.014;2023-03-01T00:09:12;40.03;;;25.15;;
23624;SDS011;11989;47.872;12.014;2023-03-01T00:11:38;37.10;;;25.45;;
23624;SDS011;11989;47.872;12.014;2023-03-01T00:14:04;38.88;;;24.50;;
23624;SDS011;11989;47.872;12.014;2023-03-01T00:16:32;38.75;;;25.75;;
23624;SDS011;11989;47.872;12.014;2023-03-01T00:18:59;38.47;;;25.45;;
23624;SDS011;11989;47.872;12.014;2023-03-01T00:21:25;37.13;;;25.40;;
23624;SDS011;11989;47.872;12.014;2023-03-01T00:23:52;31.67;;;23.98;;
23624;SDS011;11989;47.872;12.014;2023-03-01T00:26:18;36.25;;;23.63;;
23624;SDS011;11989;47.872;12.014;2023-03-01T00:28:45;32.40;;;21.80;;
23624;SDS011;11989;47.872;12.014;2023-03-01T00:31:15;36.97;;;22.23;;
23624;SDS011;11989;47.872;12.014;2023-03-01T00:33:42;34.60;;;22.00;;
23624;SDS011;11989;47.872;12.014;2023-03-01T00:36:08;30.50;;;19.88;;
23624;SDS011;11989;47.872;12.014;2023-03-01T00:38:42;27.33;;;19.80;;
23624;SDS011;11989;47.872;12.014;2023-03-01T00:41:09;30.13;;;20.55;;
23624;SDS011;11989;47.872;12.014;2023-03-01T00:43:36;28.30;;;18.98;;
23624;SDS011;11989;47.872;12.014;2023-03-01T00:46:07;29.45;;;19.60;;
23624;SDS011;11989;47.872;12.014;2023-03-01T00:48:33;27.13;;;18.38;;
23624;SDS011;11989;47.872;12.014;2023-03-01T00:53:31;30.77;;;19.38;;
23624;SDS011;11989;47.872;12.014;2023-03-01T00:55:58;26.33;;;17.98;;
23624;SDS011;11989;47.872;12.014;2023-03-01T00:58:24;29.50;;;18.05;;
23624;SDS011;11989;47.872;12.014;2023-03-01T01:00:50;25.92;;;16.60;;
23624;SDS011;11989;47.872;12.014;2023-03-01T01:03:17;29.05;;;17.80;;
23624;SDS011;11989;47.872;12.014;2023-03-01T01:05:43;30.23;;;17.95;;
23624;SDS011;11989;47.872;12.014;2023-03-01T01:08:09;25.33;;;16.35;;
23624;SDS011;11989;47.872;12.014;2023-03-01T01:10:36;26.15;;;17.38;;
23624;SDS011;11989;47.872;12.014;2023-03-01T01:13:02;27.60;;;17.60;;
23624;SDS011;11989;47.872;12.014;2023-03-01T01:15:28;28.55;;;18.60;;
23624;SDS011;11989;47.872;12.014;2023-03-01T01:17:54;22.33;;;15.80;;
23624;SDS011;11989;47.872;12.014;2023-03-01T01:20:20;25.63;;;16.45;;
23624;SDS011;11989;47.872;12.014;2023-03-01T01:22:46;25.27;;;17.35;;
23624;SDS011;11989;47.872;12.014;2023-03-01T01:25:12;24.67;;;16.52;;
23624;SDS011;11989;47.872;12.014;2023-03-01T01:27:38;26.70;;;17.55;;
23624;SDS011;11989;47.872;12.014;2023-03-01T01:30:05;23.75;;;16.58;;
23624;SDS011;11989;47.872;12.014;2023-03-01T01:32:31;26.05;;;16.98;;
23624;SDS011;11989;47.872;12.014;2023-03-01T01:34:57;25.45;;;17.33;;
23624;SDS011;11989;47.872;12.014;2023-03-01T01:37:23;26.20;;;17.05;;
23624;SDS011;11989;47.872;12.014;2023-03-01T01:39:56;22.83;;;15.75;;
23624;SDS011;11989;47.872;12.014;2023-03-01T01:42:22;25.02;;;15.70;;
23624;SDS011;11989;47.872;12.014;2023-03-01T01:44:48;25.75;;;17.52;;
23624;SDS011;11989;47.872;12.014;2023-03-01T01:47:14;27.50;;;17.30;;
23624;SDS011;11989;47.872;12.014;2023-03-01T01:52:10;25.17;;;16.45;;
23624;SDS011;11989;47.872;12.014;2023-03-01T01:54:48;25.73;;;16.77;;
23624;SDS011;11989;47.872;12.014;2023-03-01T01:57:16;25.08;;;17.80;;
23624;SDS011;11989;47.872;12.014;2023-03-01T01:59:45;25.30;;;17.52;;
23624;SDS011;11989;47.872;12.014;2023-03-01T02:02:12;27.88;;;17.65;;
23624;SDS011;11989;47.872;12.014;2023-03-01T02:04:38;28.42;;;16.83;;
23624;SDS011;11989;47.872;12.014;2023-03-01T02:07:07;25.35;;;16.00;;
23624;SDS011;11989;47.872;12.014;2023-03-01T02:09:34;23.00;;;16.35;;
23624;SDS011;11989;47.872;12.014;2023-03-01T02:12:01;29.55;;;17.17;;
23624;SDS011;11989;47.872;12.014;2023-03-01T02:14:28;22.63;;;15.02;;
23624;SDS011;11989;47.872;12.014;2023-03-01T02:16:54;26.05;;;16.45;;
23624;SDS011;11989;47.872;12.014;2023-03-01T02:19:44;25.65;;;16.58;;
23624;SDS011;11989;47.872;12.014;2023-03-01T02:22:12;23.00;;;16.58;;
23624;SDS011;11989;47.872;12.014;2023-03-01T02:24:45;25.85;;;17.13;;
23624;SDS011;11989;47.872;12.014;2023-03-01T02:27:13;24.55;;;16.02;;
23624;SDS011;11989;47.872;12.014;2023-03-01T02:29:39;25.58;;;17.48;;
23624;SDS011;11989;47.872;12.014;2023-03-01T02:32:08;24.08;;;16.10;;
23624;SDS011;11989;47.872;12.014;2023-03-01T02:34:36;26.73;;;16.30;;
23624;SDS011;11989;47.872;12.014;2023-03-01T02:37:04;24.73;;;17.20;;
23624;SDS011;11989;47.872;12.014;2023-03-01T02:39:31;25.65;;;16.80;;
23624;SDS011;11989;47.872;12.014;2023-03-01T02:41:58;26.25;;;16.52;;
23624;SDS011;11989;47.872;12.014;2023-03-01T02:44:25;25.08;;;16.35;;
23624;SDS011;11989;47.872;12.014;2023-03-01T02:46:52;26.35;;;18.20;;
23624;SDS011;11989;47.872;12.014;2023-03-01T02:49:29;24.55;;;17.17;;
23624;SDS011;11989;47.872;12.014;2023-03-01T02:54:29;26.38;;;17.65;;
23624;SDS011;11989;47.872;12.014;2023-03-01T02:56:56;28.05;;;17.67;;
23624;SDS011;11989;47.872;12.014;2023-03-01T02:59:24;28.75;;;18.67;;
23624;SDS011;11989;47.872;12.014;2023-03-01T03:01:52;25.55;;;16.45;;
23624;SDS011;11989;47.872;12.014;2023-03-01T03:04:18;27.83;;;17.85;;
23624;SDS011;11989;47.872;12.014;2023-03-01T03:06:46;31.67;;;17.35;;
23624;SDS011;11989;47.872;12.014;2023-03-01T03:09:13;27.63;;;18.30;;
23624;SDS011;11989;47.872;12.014;2023-03-01T03:11:39;30.05;;;18.63;;
23624;SDS011;11989;47.872;12.014;2023-03-01T03:14:06;24.27;;;15.82;;
23624;SDS011;11989;47.872;12.014;2023-03-01T03:16:39;25.52;;;17.08;;
23624;SDS011;11989;47.872;12.014;2023-03-01T03:19:05;25.98;;;16.55;;
23624;SDS011;11989;47.872;12.014;2023-03-01T03:21:31;24.15;;;17.15;;
23624;SDS011;11989;47.872;12.014;2023-03-01T03:23:58;26.00;;;16.85;;
23624;SDS011;11989;47.872;12.014;2023-03-01T03:26:24;28.83;;;18.08;;
23624;SDS011;11989;47.872;12.014;2023-03-01T03:28:50;27.98;;;16.25;;
23624;SDS011;11989;47.872;12.014;2023-03-01T03:31:16;25.98;;;17.30;;
23624;SDS011;11989;47.872;12.014;2023-03-01T03:33:42;25.10;;;16.25;;
23624;SDS011;11989;47.872;12.014;2023-03-01T03:36:08;25.05;;;16.05;;
23624;SDS011;11989;47.872;12.014;2023-03-01T03:38:38;26.10;;;17.00;;
23624;SDS011;11989;47.872;12.014;2023-03-01T03:41:05;27.58;;;17.77;;
23624;SDS011;11989;47.872;12.014;2023-03-01T03:43:32;25.30;;;17.15;;
23624;SDS011;11989;47.872;12.014;2023-03-01T03:45:59;26.90;;;17.17;;
23624;SDS011;11989;47.872;12.014;2023-03-01T03:48:25;25.92;;;17.02;;
23624;SDS011;11989;47.872;12.014;2023-03-01T03:50:53;24.67;;;16.58;;
23624;SDS011;11989;47.872;12.014;2023-03-01T03:53:19;24.85;;;16.73;;
23624;SDS011;11989;47.872;12.014;2023-03-01T03:55:46;26.85;;;16.38;;
23624;SDS011;11989;47.872;12.014;2023-03-01T03:58:14;23.73;;;16.60;;
23624;SDS011;11989;47.872;12.014;2023-03-01T04:00:42;29.13;;;17.80;;
23624;SDS011;11989;47.872;12.014;2023-03-01T04:03:08;25.85;;;16.95;;
23624;SDS011;11989;47.872;12.014;2023-03-01T04:05:35;23.90;;;16.88;;
23624;SDS011;11989;47.872;12.014;2023-03-01T04:08:02;25.73;;;16.63;;
23624;SDS011;11989;47.872;12.014;2023-03-01T04:10:32;24.40;;;17.20;;
23624;SDS011;11989;47.872;12.014;2023-03-01T04:12:58;25.92;;;17.00;;
23624;SDS011;11989;47.872;12.014;2023-03-01T04:15:24;28.83;;;17.77;;
23624;SDS011;11989;47.872;12.014;2023-03-01T04:17:52;28.60;;;19.00;;
23624;SDS011;11989;47.872;12.014;2023-03-01T04:20:19;23.35;;;15.55;;
23624;SDS011;11989;47.872;12.014;2023-03-01T04:22:52;27.90;;;17.40;;
23624;SDS011;11989;47.872;12.014;2023-03-01T04:25:19;25.40;;;16.30;;
23624;SDS011;11989;47.872;12.014;2023-03-01T04:27:45;26.23;;;16.90;;
23624;SDS011;11989;47.872;12.014;2023-03-01T04:30:11;25.17;;;16.67;;
23624;SDS011;11989;47.872;12.014;2023-03-01T04:32:37;27.30;;;17.95;;
23624;SDS011;11989;47.872;12.014;2023-03-01T04:35:03;28.20;;;17.58;;
23624;SDS011;11989;47.872;12.014;2023-03-01T04:37:29;25.55;;;16.42;;
23624;SDS011;11989;47.872;12.014;2023-03-01T04:39:55;27.25;;;17.25;;
23624;SDS011;11989;47.872;12.014;2023-03-01T04:42:22;26.45;;;17.25;;
23624;SDS011;11989;47.872;12.014;2023-03-01T04:44:48;29.83;;;18.80;;
23624;SDS011;11989;47.872;12.014;2023-03-01T04:47:16;27.35;;;17.50;;
23624;SDS011;11989;47.872;12.014;2023-03-01T04:49:42;28.45;;;18.33;;
23624;SDS011;11989;47.872;12.014;2023-03-01T04:52:08;30.02;;;18.20;;
23624;SDS011;11989;47.872;12.014;2023-03-01T04:54:34;28.17;;;17.02;;
23624;SDS011;11989;47.872;12.014;2023-03-01T04:57:01;27.10;;;16.45;;
23624;SDS011;11989;47.872;12.014;2023-03-01T04:59:28;28.48;;;17.15;;
23624;SDS011;11989;47.872;12.014;2023-03-01T05:01:55;26.00;;;17.42;;
23624;SDS011;11989;47.872;12.014;2023-03-01T05:04:21;25.50;;;17.83;;
23624;SDS011;11989;47.872;12.014;2023-03-01T05:06:47;25.60;;;17.85;;
23624;SDS011;11989;47.872;12.014;2023-03-01T05:09:14;30.83;;;18.13;;
23624;SDS011;11989;47.872;12.014;2023-03-01T05:11:40;25.40;;;17.40;;
23624;SDS011;11989;47.872;12.014;2023-03-01T05:14:06;26.85;;;17.73;;
23624;SDS011;11989;47.872;12.014;2023-03-01T05:16:33;26.00;;;17.75;;
23624;SDS011;11989;47.872;12.014;2023-03-01T05:18:59;29.92;;;20.10;;
23624;SDS011;11989;47.872;12.014;2023-03-01T05:21:26;27.95;;;17.75;;
23624;SDS011;11989;47.872;12.014;2023-03-01T05:23:52;32.28;;;19.73;;
23624;SDS011;11989;47.872;12.014;2023-03-01T05:26:19;26.98;;;18.27;;
23624;SDS011;11989;47.872;12.014;2023-03-01T05:28:47;27.90;;;18.60;;
23624;SDS011;11989;47.872;12.014;2023-03-01T05:31:13;28.02;;;17.92;;
23624;SDS011;11989;47.872;12.014;2023-03-01T05:33:39;26.48;;;18.75;;
23624;SDS011;11989;47.872;12.014;2023-03-01T05:36:07;29.65;;;19.48;;
23624;SDS011;11989;47.872;12.014;2023-03-01T05:38:34;27.98;;;18.58;;
23624;SDS011;11989;47.872;12.014;2023-03-01T05:41:00;26.85;;;17.92;;
23624;SDS011;11989;47.872;12.014;2023-03-01T05:43:29;25.25;;;18.27;;
23624;SDS011;11989;47.872;12.014;2023-03-01T05:45:55;28.30;;;18.23;;
23624;SDS011;11989;47.872;12.014;2023-03-01T05:48:23;28.83;;;19.52;;
23624;SDS011;11989;47.872;12.014;2023-03-01T05:50:49;28.38;;;18.70;;
23624;SDS011;11989;47.872;12.014;2023-03-01T05:53:16;26.38;;;17.95;;
23624;SDS011;11989;47.872;12.014;2023-03-01T05:55:43;25.63;;;17.88;;
23624;SDS011;11989;47.872;12.014;2023-03-01T05:58:11;27.58;;;19.30;;
23624;SDS011;11989;47.872;12.014;2023-03-01T06:00:39;29.83;;;19.13;;
23624;SDS011;11989;47.872;12.014;2023-03-01T06:03:05;28.35;;;19.10;;
23624;SDS011;11989;47.872;12.014;2023-03-01T06:05:31;29.73;;;19.88;;
23624;SDS011;11989;47.872;12.014;2023-03-01T06:07:58;28.02;;;18.95;;
23624;SDS011;11989;47.872;12.014;2023-03-01T06:10:24;29.17;;;18.75;;
23624;SDS011;11989;47.872;12.014;2023-03-01T06:12:51;27.90;;;17.95;;
23624;SDS011;11989;47.872;12.014;2023-03-01T06:15:17;31.83;;;20.20;;
23624;SDS011;11989;47.872;12.014;2023-03-01T06:17:44;25.88;;;18.55;;
23624;SDS011;11989;47.872;12.014;2023-03-01T06:20:12;26.77;;;18.58;;
23624;SDS011;11989;47.872;12.014;2023-03-01T06:22:39;29.23;;;19.30;;
23624;SDS011;11989;47.872;12.014;2023-03-01T06:25:06;33.75;;;19.90;;
23624;SDS011;11989;47.872;12.014;2023-03-01T06:27:32;33.85;;;18.70;;
23624;SDS011;11989;47.872;12.014;2023-03-01T06:29:58;29.45;;;19.35;;
23624;SDS011;11989;47.872;12.014;2023-03-01T06:32:24;28.85;;;19.33;;
23624;SDS011;11989;47.872;12.014;2023-03-01T06:34:50;30.83;;;18.58;;
23624;SDS011;11989;47.872;12.014;2023-03-01T06:37:16;29.88;;;20.08;;
23624;SDS011;11989;47.872;12.014;2023-03-01T06:39:42;26.35;;;18.58;;
23624;SDS011;11989;47.872;12.014;2023-03-01T06:42:08;28.33;;;18.55;;
23624;SDS011;11989;47.872;12.014;2023-03-01T06:44:35;29.92;;;19.35;;
23624;SDS011;11989;47.872;12.014;2023-03-01T06:47:01;25.40;;;17.38;;
23624;SDS011;11989;47.872;12.014;2023-03-01T06:49:28;27.38;;;18.42;;
23624;SDS011;11989;47.872;12.014;2023-03-01T06:51:55;27.98;;;18.50;;
23624;SDS011;11989;47.872;12.014;2023-03-01T06:54:21;27.52;;;18.45;;
23624;SDS011;11989;47.872;12.014;2023-03-01T06:56:47;24.92;;;16.85;;
23624;SDS011;11989;47.872;12.014;2023-03-01T06:59:14;29.23;;;17.45;;
23624;SDS011;11989;47.872;12.014;2023-03-01T07:01:40;26.48;;;17.58;;
23624;SDS011;11989;47.872;12.014;2023-03-01T07:04:10;27.88;;;17.88;;
23624;SDS011;11989;47.872;12.014;2023-03-01T07:06:36;29.55;;;17.80;;
23624;SDS011;11989;47.872;12.014;2023-03-01T07:09:02;31.95;;;18.45;;
23624;SDS011;11989;47.872;12.014;2023-03-01T07:11:28;28.10;;;18.77;;
23624;SDS011;11989;47.872;12.014;2023-03-01T07:13:54;28.75;;;18.67;;
23624;SDS011;11989;47.872;12.014;2023-03-01T07:16:23;27.77;;;18.23;;
23624;SDS011;11989;47.872;12.014;2023-03-01T07:18:49;32.40;;;19.27;;
23624;SDS011;11989;47.872;12.014;2023-03-01T07:21:15;26.33;;;17.52;;
23624;SDS011;11989;47.872;12.014;2023-03-01T07:23:41;27.60;;;18.27;;
23624;SDS011;11989;47.872;12.014;2023-03-01T07:26:07;26.25;;;17.60;;
23624;SDS011;11989;47.872;12.014;2023-03-01T07:28:33;30.45;;;18.70;;
23624;SDS011;11989;47.872;12.014;2023-03-01T07:31:04;29.13;;;19.90;;
23624;SDS011;11989;47.872;12.014;2023-03-01T07:33:30;29.08;;;18.38;;
23624;SDS011;11989;47.872;12.014;2023-03-01T07:35:57;30.75;;;19.92;;
23624;SDS011;11989;47.872;12.014;2023-03-01T07:38:23;28.65;;;17.67;;
23624;SDS011;11989;47.872;12.014;2023-03-01T07:40:50;30.48;;;18.55;;
23624;SDS011;11989;47.872;12.014;2023-03-01T07:43:16;25.23;;;17.30;;
23624;SDS011;11989;47.872;12.014;2023-03-01T07:45:42;31.65;;;20.73;;
23624;SDS011;11989;47.872;12.014;2023-03-01T07:48:08;31.73;;;19.20;;
23624;SDS011;11989;47.872;12.014;2023-03-01T07:50:34;33.72;;;19.80;;
23624;SDS011;11989;47.872;12.014;2023-03-01T07:53:00;29.25;;;19.95;;
23624;SDS011;11989;47.872;12.014;2023-03-01T07:55:27;29.13;;;18.52;;
23624;SDS011;11989;47.872;12.014;2023-03-01T07:57:53;31.42;;;19.60;;
23624;SDS011;11989;47.872;12.014;2023-03-01T08:00:19;30.20;;;19.27;;
23624;SDS011;11989;47.872;12.014;2023-03-01T08:02:45;29.50;;;18.90;;
23624;SDS011;11989;47.872;12.014;2023-03-01T08:05:11;29.40;;;17.92;;
23624;SDS011;11989;47.872;12.014;2023-03-01T08:07:37;30.58;;;19.33;;
23624;SDS011;11989;47.872;12.014;2023-03-01T08:10:03;28.63;;;18.77;;
23624;SDS011;11989;47.872;12.014;2023-03-01T08:12:29;28.92;;;18.83;;
23624;SDS011;11989;47.872;12.014;2023-03-01T08:14:55;30.40;;;19.00;;
23624;SDS011;11989;47.872;12.014;2023-03-01T08:17:22;32.67;;;20.48;;
23624;SDS011;11989;47.872;12.014;2023-03-01T08:19:48;32.47;;;19.33;;
23624;SDS011;11989;47.872;12.014;2023-03-01T08:22:14;30.92;;;20.38;;
23624;SDS011;11989;47.872;12.014;2023-03-01T08:24:40;31.58;;;18.52;;
23624;SDS011;11989;47.872;12.014;2023-03-01T08:27:06;29.08;;;17.73;;
23624;SDS011;11989;47.872;12.014;2023-03-01T08:29:32;27.05;;;18.45;;
23624;SDS011;11989;47.872;12.014;2023-03-01T08:31:59;24.85;;;17.58;;
23624;SDS011;11989;47.872;12.014;2023-03-01T08:34:25;32.53;;;17.38;;
23624;SDS011;11989;47.872;12.014;2023-03-01T08:36:51;26.27;;;17.80;;
23624;SDS011;11989;47.872;12.014;2023-03-01T08:39:18;28.73;;;19.27;;
23624;SDS011;11989;47.872;12.014;2023-03-01T08:41:45;25.17;;;18.20;;
23624;SDS011;11989;47.872;12.014;2023-03-01T08:44:12;27.55;;;18.98;;
23624;SDS011;11989;47.872;12.014;2023-03-01T08:46:39;27.10;;;19.08;;
23624;SDS011;11989;47.872;12.014;2023-03-01T08:49:07;28.88;;;18.02;;
23624;SDS011;11989;47.872;12.014;2023-03-01T08:51:33;28.00;;;18.38;;
23624;SDS011;11989;47.872;12.014;2023-03-01T08:54:05;28.35;;;18.20;;
23624;SDS011;11989;47.872;12.014;2023-03-01T08:56:31;27.60;;;18.15;;
23624;SDS011;11989;47.872;12.014;2023-03-01T08:58:57;27.13;;;17.77;;
23624;SDS011;11989;47.872;12.014;2023-03-01T09:01:23;29.75;;;18.73;;
23624;SDS011;11989;47.872;12.014;2023-03-01T09:03:49;27.27;;;18.00;;
23624;SDS011;11989;47.872;12.014;2023-03-01T09:06:15;28.25;;;19.17;;
23624;SDS011;11989;47.872;12.014;2023-03-01T09:08:42;26.75;;;18.92;;
23624;SDS011;11989;47.872;12.014;2023-03-01T09:11:09;25.48;;;18.35;;
23624;SDS011;11989;47.872;12.014;2023-03-01T09:13:35;25.83;;;18.42;;
23624;SDS011;11989;47.872;12.014;2023-03-01T09:16:03;26.85;;;19.25;;
23624;SDS011;11989;47.872;12.014;2023-03-01T09:18:29;26.05;;;19.02;;
23624;SDS011;11989;47.872;12.014;2023-03-01T09:21:02;28.55;;;19.00;;
23624;SDS011;11989;47.872;12.014;2023-03-01T09:23:32;29.73;;;19.88;;
23624;SDS011;11989;47.872;12.014;2023-03-01T09:25:58;25.73;;;19.45;;
23624;SDS011;11989;47.872;12.014;2023-03-01T09:28:24;27.20;;;19.73;;
23624;SDS011;11989;47.872;12.014;2023-03-01T09:30:50;36.25;;;23.65;;
23624;SDS011;11989;47.872;12.014;2023-03-01T09:33:16;34.20;;;22.90;;
23624;SDS011;11989;47.872;12.014;2023-03-01T09:35:42;37.13;;;23.20;;
23624;SDS011;11989;47.872;12.014;2023-03-01T09:38:12;32.38;;;21.75;;
23624;SDS011;11989;47.872;12.014;2023-03-01T09:40:42;29.55;;;19.63;;
23624;SDS011;11989;47.872;12.014;2023-03-01T09:43:22;27.63;;;19.98;;
23624;SDS011;11989;47.872;12.014;2023-03-01T09:45:49;28.42;;;20.55;;
23624;SDS011;11989;47.872;12.014;2023-03-01T09:48:17;26.40;;;19.13;;
23624;SDS011;11989;47.872;12.014;2023-03-01T09:50:43;32.55;;;20.45;;
23624;SDS011;11989;47.872;12.014;2023-03-01T09:53:18;27.33;;;20.65;;
23624;SDS011;11989;47.872;12.014;2023-03-01T09:55:55;27.48;;;20.42;;
23624;SDS011;11989;47.872;12.014;2023-03-01T10:06:39;33.20;;;20.92;;
23624;SDS011;11989;47.872;12.014;2023-03-01T10:09:16;32.15;;;21.42;;
23624;SDS011;11989;47.872;12.014;2023-03-01T10:11:45;30.20;;;22.13;;
23624;SDS011;11989;47.872;12.014;2023-03-01T10:16:43;29.42;;;20.67;;
23624;SDS011;11989;47.872;12.014;2023-03-01T10:19:23;29.33;;;19.48;;
23624;SDS011;11989;47.872;12.014;2023-03-01T10:21:50;30.27;;;19.90;;
23624;SDS011;11989;47.872;12.014;2023-03-01T10:24:17;28.08;;;19.52;;
23624;SDS011;11989;47.872;12.014;2023-03-01T10:26:58;28.73;;;19.35;;
23624;SDS011;11989;47.872;12.014;2023-03-01T10:29:35;31.40;;;20.40;;
23624;SDS011;11989;47.872;12.014;2023-03-01T10:32:03;29.20;;;19.25;;
23624;SDS011;11989;47.872;12.014;2023-03-01T10:34:32;32.70;;;20.65;;
23624;SDS011;11989;47.872;12.014;2023-03-01T10:37:16;28.65;;;19.67;;
23624;SDS011;11989;47.872;12.014;2023-03-01T10:42:35;31.58;;;20.45;;
23624;SDS011;11989;47.872;12.014;2023-03-01T10:45:15;36.28;;;21.67;;
23624;SDS011;11989;47.872;12.014;2023-03-01T10:47:42;30.42;;;20.55;;
23624;SDS011;11989;47.872;12.014;2023-03-01T10:50:18;31.08;;;19.92;;
23624;SDS011;11989;47.872;12.014;2023-03-01T10:52:54;29.38;;;21.58;;
23624;SDS011;11989;47.872;12.014;2023-03-01T10:55:26;28.70;;;19.63;;
23624;SDS011;11989;47.872;12.014;2023-03-01T10:58:06;32.88;;;22.15;;
23624;SDS011;11989;47.872;12.014;2023-03-01T11:00:32;30.67;;;20.55;;
23624;SDS011;11989;47.872;12.014;2023-03-01T11:05:24;32.35;;;20.63;;
23624;SDS011;11989;47.872;12.014;2023-03-01T11:08:02;32.58;;;20.67;;
23624;SDS011;11989;47.872;12.014;2023-03-01T11:10:32;31.40;;;20.70;;
23624;SDS011;11989;47.872;12.014;2023-03-01T11:13:32;31.35;;;19.83;;
23624;SDS011;11989;47.872;12.014;2023-03-01T11:18:26;30.00;;;18.90;;
23624;SDS011;11989;47.872;12.014;2023-03-01T11:20:53;31.67;;;20.35;;
23624;SDS011;11989;47.872;12.014;2023-03-01T11:23:21;29.90;;;19.13;;
23624;SDS011;11989;47.872;12.014;2023-03-01T11:25:54;29.38;;;20.35;;
23624;SDS011;11989;47.872;12.014;2023-03-01T11:28:21;30.67;;;20.42;;
23624;SDS011;11989;47.872;12.014;2023-03-01T11:33:18;27.83;;;19.23;;
23624;SDS011;11989;47.872;12.014;2023-03-01T11:35:56;28.38;;;19.50;;
23624;SDS011;11989;47.872;12.014;2023-03-01T11:38:24;29.98;;;19.63;;
23624;SDS011;11989;47.872;12.014;2023-03-01T11:43:46;28.67;;;18.65;;
23624;SDS011;11989;47.872;12.014;2023-03-01T11:54:18;30.08;;;20.27;;
23624;SDS011;11989;47.872;12.014;2023-03-01T11:56:50;31.20;;;18.85;;
23624;SDS011;11989;47.872;12.014;2023-03-01T11:59:22;28.70;;;18.13;;
23624;SDS011;11989;47.872;12.014;2023-03-01T12:07:07;34.30;;;21.75;;
23624;SDS011;11989;47.872;12.014;2023-03-01T12:09:54;30.85;;;19.70;;
23624;SDS011;11989;47.872;12.014;2023-03-01T12:22:38;25.92;;;19.13;;
23624;SDS011;11989;47.872;12.014;2023-03-01T12:30:23;25.25;;;16.63;;
23624;SDS011;11989;47.872;12.014;2023-03-01T12:45:57;23.42;;;17.20;;
23624;SDS011;11989;47.872;12.014;2023-03-01T12:50:57;23.48;;;16.95;;
23624;SDS011;11989;47.872;12.014;2023-03-01T12:53:26;24.38;;;16.73;;
23624;SDS011;11989;47.872;12.014;2023-03-01T12:55:53;24.85;;;17.85;;
23624;SDS011;11989;47.872;12.014;2023-03-01T13:08:32;26.00;;;18.02;;
23624;SDS011;11989;47.872;12.014;2023-03-01T13:11:02;28.00;;;17.55;;
23624;SDS011;11989;47.872;12.014;2023-03-01T13:13:29;26.27;;;17.92;;
23624;SDS011;11989;47.872;12.014;2023-03-01T13:15:56;24.92;;;17.25;;
23624;SDS011;11989;47.872;12.014;2023-03-01T13:20:50;24.20;;;17.67;;
23624;SDS011;11989;47.872;12.014;2023-03-01T13:31:55;26.27;;;18.58;;
23624;SDS011;11989;47.872;12.014;2023-03-01T13:33:53;35.13;;;22.70;;
23624;SDS011;11989;47.872;12.014;2023-03-01T13:38:58;25.70;;;19.23;;
23624;SDS011;11989;47.872;12.014;2023-03-01T13:44:12;32.58;;;20.02;;
23624;SDS011;11989;47.872;12.014;2023-03-01T13:46:38;28.67;;;20.55;;
23624;SDS011;11989;47.872;12.014;2023-03-01T13:49:05;33.92;;;22.42;;
23624;SDS011;11989;47.872;12.014;2023-03-01T13:51:37;29.38;;;20.00;;
23624;SDS011;11989;47.872;12.014;2023-03-01T13:54:03;26.92;;;19.20;;
23624;SDS011;11989;47.872;12.014;2023-03-01T13:56:33;30.33;;;21.02;;
23624;SDS011;11989;47.872;12.014;2023-03-01T13:59:02;28.40;;;20.13;;
23624;SDS011;11989;47.872;12.014;2023-03-01T14:01:34;26.48;;;18.35;;
23624;SDS011;11989;47.872;12.014;2023-03-01T14:04:01;28.90;;;19.33;;
23624;SDS011;11989;47.872;12.014;2023-03-01T14:06:28;27.70;;;18.88;;
23624;SDS011;11989;47.872;12.014;2023-03-01T14:09:30;29.13;;;19.60;;
23624;SDS011;11989;47.872;12.014;2023-03-01T14:11:56;29.10;;;20.00;;
23624;SDS011;11989;47.872;12.014;2023-03-01T14:17:26;26.95;;;19.15;;
23624;SDS011;11989;47.872;12.014;2023-03-01T14:19:55;26.63;;;19.15;;
23624;SDS011;11989;47.872;12.014;2023-03-01T14:22:23;30.38;;;20.02;;
23624;SDS011;11989;47.872;12.014;2023-03-01T14:24:51;28.88;;;18.70;;
23624;SDS011;11989;47.872;12.014;2023-03-01T14:27:18;29.02;;;19.83;;
23624;SDS011;11989;47.872;12.014;2023-03-01T14:29:45;31.42;;;20.50;;
23624;SDS011;11989;47.872;12.014;2023-03-01T14:32:20;26.35;;;19.85;;
23624;SDS011;11989;47.872;12.014;2023-03-01T14:34:48;30.30;;;20.50;;
23624;SDS011;11989;47.872;12.014;2023-03-01T14:37:21;28.30;;;19.80;;
23624;SDS011;11989;47.872;12.014;2023-03-01T14:39:48;28.38;;;19.42;;
23624;SDS011;11989;47.872;12.014;2023-03-01T14:42:14;31.77;;;19.33;;
23624;SDS011;11989;47.872;12.014;2023-03-01T14:44:42;28.92;;;19.50;;
23624;SDS011;11989;47.872;12.014;2023-03-01T14:47:15;34.88;;;21.58;;
23624;SDS011;11989;47.872;12.014;2023-03-01T14:49:42;29.45;;;19.13;;
23624;SDS011;11989;47.872;12.014;2023-03-01T14:52:19;30.42;;;20.30;;
23624;SDS011;11989;47.872;12.014;2023-03-01T14:54:47;27.38;;;19.77;;
23624;SDS011;11989;47.872;12.014;2023-03-01T14:57:15;27.20;;;19.05;;
23624;SDS011;11989;47.872;12.014;2023-03-01T14:59:42;28.65;;;20.55;;
23624;SDS011;11989;47.872;12.014;2023-03-01T15:02:11;30.05;;;22.23;;
23624;SDS011;11989;47.872;12.014;2023-03-01T15:04:41;27.50;;;19.45;;
23624;SDS011;11989;47.872;12.014;2023-03-01T15:07:09;33.50;;;21.75;;
23624;SDS011;11989;47.872;12.014;2023-03-01T15:09:39;32.90;;;20.98;;
23624;SDS011;11989;47.872;12.014;2023-03-01T15:14:50;32.60;;;21.27;;
23624;SDS011;11989;47.872;12.014;2023-03-01T15:17:23;30.23;;;19.48;;
23624;SDS011;11989;47.872;12.014;2023-03-01T15:19:52;29.52;;;20.75;;
23624;SDS011;11989;47.872;12.014;2023-03-01T15:22:18;30.30;;;19.70;;
23624;SDS011;11989;47.872;12.014;2023-03-01T15:24:48;29.38;;;20.05;;
23624;SDS011;11989;47.872;12.014;2023-03-01T15:27:16;31.58;;;20.75;;
23624;SDS011;11989;47.872;12.014;2023-03-01T15:29:47;29.77;;;20.67;;
23624;SDS011;11989;47.872;12.014;2023-03-01T15:34:58;30.00;;;20.52;;
23624;SDS011;11989;47.872;12.014;2023-03-01T15:42:49;26.40;;;19.52;;
23624;SDS011;11989;47.872;12.014;2023-03-01T15:47:50;28.10;;;18.95;;
23624;SDS011;11989;47.872;12.014;2023-03-01T15:50:26;28.95;;;19.65;;
23624;SDS011;11989;47.872;12.014;2023-03-01T15:52:52;25.67;;;18.00;;
23624;SDS011;11989;47.872;12.014;2023-03-01T15:55:20;32.97;;;20.13;;
23624;SDS011;11989;47.872;12.014;2023-03-01T15:57:46;27.48;;;19.30;;
23624;SDS011;11989;47.872;12.014;2023-03-01T16:00:13;28.38;;;19.25;;
23624;SDS011;11989;47.872;12.014;2023-03-01T16:02:39;28.30;;;18.73;;
23624;SDS011;11989;47.872;12.014;2023-03-01T16:05:09;28.90;;;19.25;;
23624;SDS011;11989;47.872;12.014;2023-03-01T16:07:40;31.20;;;19.45;;
23624;SDS011;11989;47.872;12.014;2023-03-01T16:10:06;30.92;;;19.77;;
23624;SDS011;11989;47.872;12.014;2023-03-01T16:12:32;28.33;;;18.83;;